This is the latest recevied weather packets stored in our database for station/object KQ4OSL. If no packets are shown the sender has not sent any weather packets the latest 10 day(s).
| Time | Temp. | Humidity | Pressure | Rain* | Wind** | Luminosity | Snow |
|---|---|---|---|---|---|---|---|
| 1777664979 | 17.22° C | 75% | 1015.5 hPa | 0 mm | - | 181 W/m² | - |
| 1777664675 | 16.67° C | 77% | 1015.6 hPa | 0 mm | - | 134 W/m² | - |
| 1777664371 | 16.67° C | 77% | 1015.7 hPa | 0 mm | - | 115 W/m² | - |
| 1777664070 | 16.67° C | 77% | 1015.5 hPa | 0 mm | - | 115 W/m² | - |
| 1777663767 | 17.22° C | 76% | 1015.5 hPa | 0 mm | - | 143 W/m² | - |
| 1777663465 | 17.22° C | 76% | 1015.4 hPa | 0 mm | - | 134 W/m² | - |
| 1777663162 | 17.22° C | 74% | 1015.4 hPa | 0 mm | - | 170 W/m² | - |
| 1777662859 | 17.22° C | 75% | 1015.3 hPa | 0 mm | - | 185 W/m² | - |
| 1777662556 | 17.22° C | 76% | 1015.4 hPa | 0 mm | - | 197 W/m² | - |
| 1777662252 | 17.22° C | 75% | 1015.5 hPa | 0 mm | - | 159 W/m² | - |
| 1777661952 | 17.78° C | 76% | 1015.4 hPa | 0 mm | - | 168 W/m² | - |
| 1777661648 | 17.22° C | 75% | 1015.6 hPa | 0 mm | - | 175 W/m² | - |
| 1777661344 | 17.22° C | 74% | 1015.6 hPa | 0 mm | - | 225 W/m² | - |
| 1777661040 | 17.22° C | 74% | 1015.6 hPa | 0 mm | - | 247 W/m² | - |
| 1777660735 | 16.67° C | 75% | 1015.7 hPa | 0 mm | - | 242 W/m² | - |
| 1777660433 | 16.11° C | 79% | 1015.9 hPa | 0 mm | - | 204 W/m² | - |
| 1777660129 | 16.67° C | 77% | 1015.9 hPa | 0 mm | - | 169 W/m² | - |
| 1777659826 | 16.67° C | 78% | 1015.9 hPa | 0 mm | - | 167 W/m² | - |
| 1777659523 | 16.67° C | 78% | 1015.6 hPa | 0 mm | - | 219 W/m² | - |
| 1777659220 | 16.67° C | 75% | 1015.6 hPa | 0 mm | - | 246 W/m² | - |
| 1777658917 | 16.67° C | 75% | 1015.9 hPa | 0 mm | - | 198 W/m² | - |
| 1777658613 | 16.11° C | 74% | 1015.8 hPa | 0 mm | - | 166 W/m² | - |
| 1777658311 | 16.11° C | 74% | 1015.9 hPa | 0 mm | - | 146 W/m² | - |
| 1777658007 | 16.67° C | 75% | 1015.9 hPa | 0 mm | - | 168 W/m² | - |
| 1777657704 | 16.67° C | 76% | 1016.1 hPa | 0 mm | - | 158 W/m² | - |
* Rain latest hour (hover to see other rain measurements)
** Current wind speed in m/s (hover to see current wind gust speed)